sensor_id;sensor_type;location;lat;lon;timestamp;temperature;humidity
19538;DHT22;9914;51.008;4.300;2022-09-13T00:00:36;20.80;99.90
19538;DHT22;9914;51.008;4.300;2022-09-13T00:03:03;20.70;99.90
19538;DHT22;9914;51.008;4.300;2022-09-13T00:05:29;20.70;99.90
19538;DHT22;9914;51.008;4.300;2022-09-13T00:07:55;20.80;99.90
19538;DHT22;9914;51.008;4.300;2022-09-13T00:10:21;20.70;99.90
19538;DHT22;9914;51.008;4.300;2022-09-13T00:12:48;20.70;99.90
19538;DHT22;9914;51.008;4.300;2022-09-13T00:15:14;20.70;99.90
19538;DHT22;9914;51.008;4.300;2022-09-13T00:17:40;20.70;99.90
19538;DHT22;9914;51.008;4.300;2022-09-13T00:20:06;20.60;99.90
19538;DHT22;9914;51.008;4.300;2022-09-13T00:22:33;20.70;99.90
19538;DHT22;9914;51.008;4.300;2022-09-13T00:24:58;20.70;99.90
19538;DHT22;9914;51.008;4.300;2022-09-13T00:27:24;20.70;99.90
19538;DHT22;9914;51.008;4.300;2022-09-13T00:29:50;20.70;99.90
19538;DHT22;9914;51.008;4.300;2022-09-13T00:32:16;21.00;99.90
19538;DHT22;9914;51.008;4.300;2022-09-13T00:34:41;21.00;99.90
19538;DHT22;9914;51.008;4.300;2022-09-13T00:37:07;20.90;99.90
19538;DHT22;9914;51.008;4.300;2022-09-13T00:39:33;20.90;99.90
19538;DHT22;9914;51.008;4.300;2022-09-13T00:41:58;20.90;99.90
19538;DHT22;9914;51.008;4.300;2022-09-13T00:44:52;20.80;99.90
19538;DHT22;9914;51.008;4.300;2022-09-13T00:50:15;20.80;99.90
19538;DHT22;9914;51.008;4.300;2022-09-13T00:52:45;20.70;99.90
19538;DHT22;9914;51.008;4.300;2022-09-13T00:55:32;20.80;99.90
19538;DHT22;9914;51.008;4.300;2022-09-13T00:58:03;20.90;99.90
19538;DHT22;9914;51.008;4.300;2022-09-13T01:00:30;20.90;99.90
19538;DHT22;9914;51.008;4.300;2022-09-13T01:03:05;20.80;99.90
19538;DHT22;9914;51.008;4.300;2022-09-13T01:05:36;20.70;99.90
19538;DHT22;9914;51.008;4.300;2022-09-13T01:08:05;20.70;99.90
19538;DHT22;9914;51.008;4.300;2022-09-13T01:10:37;20.70;99.90
19538;DHT22;9914;51.008;4.300;2022-09-13T01:13:05;20.60;99.90
19538;DHT22;9914;51.008;4.300;2022-09-13T01:15:39;20.70;99.90
19538;DHT22;9914;51.008;4.300;2022-09-13T01:18:05;20.70;99.90
19538;DHT22;9914;51.008;4.300;2022-09-13T01:26:30;20.80;99.90
19538;DHT22;9914;51.008;4.300;2022-09-13T01:37:15;20.90;99.90
19538;DHT22;9914;51.008;4.300;2022-09-13T01:40:04;20.80;99.90
19538;DHT22;9914;51.008;4.300;2022-09-13T01:42:46;20.80;99.90
19538;DHT22;9914;51.008;4.300;2022-09-13T01:48:00;20.90;99.90
19538;DHT22;9914;51.008;4.300;2022-09-13T01:50:38;20.70;99.90
19538;DHT22;9914;51.008;4.300;2022-09-13T01:55:43;20.60;99.90
19538;DHT22;9914;51.008;4.300;2022-09-13T02:01:07;20.40;99.90
19538;DHT22;9914;51.008;4.300;2022-09-13T02:03:37;20.40;99.90
19538;DHT22;9914;51.008;4.300;2022-09-13T02:06:11;20.20;99.90
19538;DHT22;9914;51.008;4.300;2022-09-13T02:08:54;20.10;99.90
19538;DHT22;9914;51.008;4.300;2022-09-13T02:11:21;20.20;99.90
19538;DHT22;9914;51.008;4.300;2022-09-13T02:14:20;20.30;99.90
19538;DHT22;9914;51.008;4.300;2022-09-13T02:22:17;20.20;99.90
19538;DHT22;9914;51.008;4.300;2022-09-13T02:24:48;20.20;99.90
19538;DHT22;9914;51.008;4.300;2022-09-13T02:27:19;20.30;99.90
19538;DHT22;9914;51.008;4.300;2022-09-13T02:29:48;20.20;99.90
19538;DHT22;9914;51.008;4.300;2022-09-13T02:32:22;20.20;99.90
19538;DHT22;9914;51.008;4.300;2022-09-13T02:34:54;20.10;99.90
19538;DHT22;9914;51.008;4.300;2022-09-13T02:37:24;20.10;99.90
19538;DHT22;9914;51.008;4.300;2022-09-13T02:39:54;20.10;99.90
19538;DHT22;9914;51.008;4.300;2022-09-13T02:42:30;20.10;99.90
19538;DHT22;9914;51.008;4.300;2022-09-13T02:45:00;20.10;99.90
19538;DHT22;9914;51.008;4.300;2022-09-13T02:47:49;20.10;99.90
19538;DHT22;9914;51.008;4.300;2022-09-13T03:01:10;20.30;99.90
19538;DHT22;9914;51.008;4.300;2022-09-13T03:03:36;20.10;99.90
19538;DHT22;9914;51.008;4.300;2022-09-13T03:06:02;20.10;99.90
19538;DHT22;9914;51.008;4.300;2022-09-13T03:08:28;20.10;99.90
19538;DHT22;9914;51.008;4.300;2022-09-13T03:22:46;20.20;99.90
19538;DHT22;9914;51.008;4.300;2022-09-13T03:31:09;20.20;99.90
19538;DHT22;9914;51.008;4.300;2022-09-13T03:33:47;20.00;99.90
19538;DHT22;9914;51.008;4.300;2022-09-13T03:36:26;20.00;99.90
19538;DHT22;9914;51.008;4.300;2022-09-13T03:41:40;20.10;99.90
19538;DHT22;9914;51.008;4.300;2022-09-13T03:44:11;20.10;99.90
19538;DHT22;9914;51.008;4.300;2022-09-13T03:46:44;20.20;99.90
19538;DHT22;9914;51.008;4.300;2022-09-13T03:49:16;20.20;99.90
19538;DHT22;9914;51.008;4.300;2022-09-13T03:51:44;20.20;99.90
19538;DHT22;9914;51.008;4.300;2022-09-13T03:54:23;20.20;99.90
19538;DHT22;9914;51.008;4.300;2022-09-13T03:59:34;20.30;99.90
19538;DHT22;9914;51.008;4.300;2022-09-13T04:02:05;20.20;99.90
19538;DHT22;9914;51.008;4.300;2022-09-13T04:04:31;20.10;99.90
19538;DHT22;9914;51.008;4.300;2022-09-13T04:06:58;20.20;99.90
19538;DHT22;9914;51.008;4.300;2022-09-13T04:09:27;20.10;99.90
19538;DHT22;9914;51.008;4.300;2022-09-13T04:11:53;20.10;99.90
19538;DHT22;9914;51.008;4.300;2022-09-13T04:14:19;20.00;99.90
19538;DHT22;9914;51.008;4.300;2022-09-13T04:16:45;20.00;99.90
19538;DHT22;9914;51.008;4.300;2022-09-13T04:19:10;20.00;99.90
19538;DHT22;9914;51.008;4.300;2022-09-13T04:21:36;20.10;99.90
19538;DHT22;9914;51.008;4.300;2022-09-13T04:24:02;20.20;99.90
19538;DHT22;9914;51.008;4.300;2022-09-13T04:26:28;20.20;99.90
19538;DHT22;9914;51.008;4.300;2022-09-13T04:28:53;20.20;99.90
19538;DHT22;9914;51.008;4.300;2022-09-13T04:31:19;20.10;99.90
19538;DHT22;9914;51.008;4.300;2022-09-13T04:33:45;20.10;99.90
19538;DHT22;9914;51.008;4.300;2022-09-13T04:36:10;20.20;99.90
19538;DHT22;9914;51.008;4.300;2022-09-13T04:38:36;20.10;99.90
19538;DHT22;9914;51.008;4.300;2022-09-13T04:41:02;20.00;99.90
19538;DHT22;9914;51.008;4.300;2022-09-13T04:43:28;20.00;99.90
19538;DHT22;9914;51.008;4.300;2022-09-13T04:45:54;19.90;99.90
19538;DHT22;9914;51.008;4.300;2022-09-13T04:48:20;19.80;99.90
19538;DHT22;9914;51.008;4.300;2022-09-13T04:50:45;19.90;99.90
19538;DHT22;9914;51.008;4.300;2022-09-13T04:53:11;19.90;99.90
19538;DHT22;9914;51.008;4.300;2022-09-13T04:55:38;20.00;99.90
19538;DHT22;9914;51.008;4.300;2022-09-13T04:58:04;19.90;99.90
19538;DHT22;9914;51.008;4.300;2022-09-13T05:00:31;19.90;99.90
19538;DHT22;9914;51.008;4.300;2022-09-13T05:02:56;19.80;99.90
19538;DHT22;9914;51.008;4.300;2022-09-13T05:05:22;19.90;99.90
19538;DHT22;9914;51.008;4.300;2022-09-13T05:07:50;19.80;99.90
19538;DHT22;9914;51.008;4.300;2022-09-13T05:10:16;19.70;99.90
19538;DHT22;9914;51.008;4.300;2022-09-13T05:12:42;19.60;99.90
19538;DHT22;9914;51.008;4.300;2022-09-13T05:15:07;19.70;99.90
19538;DHT22;9914;51.008;4.300;2022-09-13T05:17:33;19.80;99.90
19538;DHT22;9914;51.008;4.300;2022-09-13T05:19:59;19.80;99.90
19538;DHT22;9914;51.008;4.300;2022-09-13T05:22:25;20.00;99.90
19538;DHT22;9914;51.008;4.300;2022-09-13T05:24:50;20.00;99.90
19538;DHT22;9914;51.008;4.300;2022-09-13T05:27:16;20.00;99.90
19538;DHT22;9914;51.008;4.300;2022-09-13T05:29:41;20.00;99.90
19538;DHT22;9914;51.008;4.300;2022-09-13T05:32:07;20.00;99.90
19538;DHT22;9914;51.008;4.300;2022-09-13T05:34:33;19.90;99.90
19538;DHT22;9914;51.008;4.300;2022-09-13T05:36:58;20.00;99.90
19538;DHT22;9914;51.008;4.300;2022-09-13T05:39:24;20.10;99.90
19538;DHT22;9914;51.008;4.300;2022-09-13T05:41:49;20.00;99.90
19538;DHT22;9914;51.008;4.300;2022-09-13T05:44:15;20.00;99.90
19538;DHT22;9914;51.008;4.300;2022-09-13T05:46:41;19.90;99.90
19538;DHT22;9914;51.008;4.300;2022-09-13T05:49:11;19.80;99.90
19538;DHT22;9914;51.008;4.300;2022-09-13T05:51:38;19.90;99.90
19538;DHT22;9914;51.008;4.300;2022-09-13T05:54:04;19.90;99.90
19538;DHT22;9914;51.008;4.300;2022-09-13T05:56:30;20.20;99.90
19538;DHT22;9914;51.008;4.300;2022-09-13T05:58:56;20.20;99.90
19538;DHT22;9914;51.008;4.300;2022-09-13T06:01:24;20.40;99.90
19538;DHT22;9914;51.008;4.300;2022-09-13T06:03:53;20.40;99.90
19538;DHT22;9914;51.008;4.300;2022-09-13T06:06:20;20.20;99.90
19538;DHT22;9914;51.008;4.300;2022-09-13T06:08:47;19.90;99.90
19538;DHT22;9914;51.008;4.300;2022-09-13T06:11:14;20.20;99.90
19538;DHT22;9914;51.008;4.300;2022-09-13T06:13:40;20.30;99.90
19538;DHT22;9914;51.008;4.300;2022-09-13T06:16:11;20.40;99.90
19538;DHT22;9914;51.008;4.300;2022-09-13T06:18:38;20.40;99.90
19538;DHT22;9914;51.008;4.300;2022-09-13T06:21:08;20.40;99.90
19538;DHT22;9914;51.008;4.300;2022-09-13T06:23:35;20.60;99.90
19538;DHT22;9914;51.008;4.300;2022-09-13T06:26:09;20.60;99.90
19538;DHT22;9914;51.008;4.300;2022-09-13T06:28:35;20.70;99.90
19538;DHT22;9914;51.008;4.300;2022-09-13T06:33:32;20.90;99.90
19538;DHT22;9914;51.008;4.300;2022-09-13T06:36:05;20.80;99.90
19538;DHT22;9914;51.008;4.300;2022-09-13T06:38:31;20.90;99.90
19538;DHT22;9914;51.008;4.300;2022-09-13T06:41:10;20.90;99.90
19538;DHT22;9914;51.008;4.300;2022-09-13T06:43:37;20.90;99.90
19538;DHT22;9914;51.008;4.300;2022-09-13T06:46:05;21.00;99.90
19538;DHT22;9914;51.008;4.300;2022-09-13T06:48:32;21.00;99.90
19538;DHT22;9914;51.008;4.300;2022-09-13T06:51:00;20.50;99.90
19538;DHT22;9914;51.008;4.300;2022-09-13T06:53:26;20.50;99.90
19538;DHT22;9914;51.008;4.300;2022-09-13T06:56:26;20.80;99.90
19538;DHT22;9914;51.008;4.300;2022-09-13T06:58:56;21.00;99.90
19538;DHT22;9914;51.008;4.300;2022-09-13T07:01:30;21.10;99.90
19538;DHT22;9914;51.008;4.300;2022-09-13T07:06:29;21.30;99.90
19538;DHT22;9914;51.008;4.300;2022-09-13T07:08:56;21.40;99.90
19538;DHT22;9914;51.008;4.300;2022-09-13T07:11:25;21.10;99.90
19538;DHT22;9914;51.008;4.300;2022-09-13T07:13:52;21.10;99.90
19538;DHT22;9914;51.008;4.300;2022-09-13T07:16:21;21.50;99.90
19538;DHT22;9914;51.008;4.300;2022-09-13T07:18:57;21.80;99.90
19538;DHT22;9914;51.008;4.300;2022-09-13T07:21:24;22.10;99.90
19538;DHT22;9914;51.008;4.300;2022-09-13T07:23:50;22.40;99.90
19538;DHT22;9914;51.008;4.300;2022-09-13T07:26:16;22.50;99.90
19538;DHT22;9914;51.008;4.300;2022-09-13T07:28:44;22.60;99.90
19538;DHT22;9914;51.008;4.300;2022-09-13T07:31:33;22.70;99.90
19538;DHT22;9914;51.008;4.300;2022-09-13T07:34:01;22.70;99.90
19538;DHT22;9914;51.008;4.300;2022-09-13T07:36:29;22.80;99.90
19538;DHT22;9914;51.008;4.300;2022-09-13T07:38:56;22.90;99.90
19538;DHT22;9914;51.008;4.300;2022-09-13T07:41:23;22.90;99.90
19538;DHT22;9914;51.008;4.300;2022-09-13T07:43:49;23.10;99.90
19538;DHT22;9914;51.008;4.300;2022-09-13T07:46:18;23.40;99.90
19538;DHT22;9914;51.008;4.300;2022-09-13T07:48:45;23.70;99.90
19538;DHT22;9914;51.008;4.300;2022-09-13T07:51:13;23.80;99.90
19538;DHT22;9914;51.008;4.300;2022-09-13T07:53:41;23.40;99.90
19538;DHT22;9914;51.008;4.300;2022-09-13T07:56:09;22.80;99.90
19538;DHT22;9914;51.008;4.300;2022-09-13T07:58:36;22.90;99.90
19538;DHT22;9914;51.008;4.300;2022-09-13T08:03:36;22.70;99.90
19538;DHT22;9914;51.008;4.300;2022-09-13T08:06:03;23.30;99.90
19538;DHT22;9914;51.008;4.300;2022-09-13T08:08:29;23.80;99.90
19538;DHT22;9914;51.008;4.300;2022-09-13T08:10:56;24.10;99.90
19538;DHT22;9914;51.008;4.300;2022-09-13T08:13:22;24.10;99.90
19538;DHT22;9914;51.008;4.300;2022-09-13T08:15:48;24.50;99.90
19538;DHT22;9914;51.008;4.300;2022-09-13T08:18:17;24.50;99.90
19538;DHT22;9914;51.008;4.300;2022-09-13T08:20:43;24.60;99.90
19538;DHT22;9914;51.008;4.300;2022-09-13T08:23:10;24.40;99.90
19538;DHT22;9914;51.008;4.300;2022-09-13T08:25:36;24.10;99.90
19538;DHT22;9914;51.008;4.300;2022-09-13T08:28:14;24.40;99.90
19538;DHT22;9914;51.008;4.300;2022-09-13T08:30:41;24.60;99.90
19538;DHT22;9914;51.008;4.300;2022-09-13T08:33:09;24.80;99.90
19538;DHT22;9914;51.008;4.300;2022-09-13T08:35:35;25.20;99.90
19538;DHT22;9914;51.008;4.300;2022-09-13T08:38:03;25.40;99.90
19538;DHT22;9914;51.008;4.300;2022-09-13T08:40:50;25.90;99.90
19538;DHT22;9914;51.008;4.300;2022-09-13T08:43:30;26.10;99.90
19538;DHT22;9914;51.008;4.300;2022-09-13T08:46:04;26.30;99.90
19538;DHT22;9914;51.008;4.300;2022-09-13T08:48:36;26.30;99.90
19538;DHT22;9914;51.008;4.300;2022-09-13T08:51:07;26.30;99.90
19538;DHT22;9914;51.008;4.300;2022-09-13T08:53:44;26.40;99.90
19538;DHT22;9914;51.008;4.300;2022-09-13T08:56:22;26.20;99.90
19538;DHT22;9914;51.008;4.300;2022-09-13T08:59:10;26.40;99.90
19538;DHT22;9914;51.008;4.300;2022-09-13T09:04:41;26.30;99.90
19538;DHT22;9914;51.008;4.300;2022-09-13T09:07:20;26.50;99.90
19538;DHT22;9914;51.008;4.300;2022-09-13T09:10:24;26.40;99.90
19538;DHT22;9914;51.008;4.300;2022-09-13T09:13:06;26.40;99.90
19538;DHT22;9914;51.008;4.300;2022-09-13T09:18:30;26.70;99.90
19538;DHT22;9914;51.008;4.300;2022-09-13T09:20:58;26.60;99.90
19538;DHT22;9914;51.008;4.300;2022-09-13T09:23:50;26.90;99.90
19538;DHT22;9914;51.008;4.300;2022-09-13T09:26:19;27.00;99.90
19538;DHT22;9914;51.008;4.300;2022-09-13T09:31:38;26.90;99.90
19538;DHT22;9914;51.008;4.300;2022-09-13T09:34:12;26.40;99.90
19538;DHT22;9914;51.008;4.300;2022-09-13T09:39:19;26.50;99.90
19538;DHT22;9914;51.008;4.300;2022-09-13T09:41:45;26.40;99.90
19538;DHT22;9914;51.008;4.300;2022-09-13T09:44:18;26.40;99.90
19538;DHT22;9914;51.008;4.300;2022-09-13T09:47:06;26.10;99.90
19538;DHT22;9914;51.008;4.300;2022-09-13T09:50:02;26.50;99.90
19538;DHT22;9914;51.008;4.300;2022-09-13T09:55:29;26.50;99.90
19538;DHT22;9914;51.008;4.300;2022-09-13T09:58:04;26.70;99.90
19538;DHT22;9914;51.008;4.300;2022-09-13T10:00:49;26.70;99.90
19538;DHT22;9914;51.008;4.300;2022-09-13T10:03:23;26.50;99.90
19538;DHT22;9914;51.008;4.300;2022-09-13T10:05:49;26.40;99.90
19538;DHT22;9914;51.008;4.300;2022-09-13T10:08:30;26.40;99.90
19538;DHT22;9914;51.008;4.300;2022-09-13T10:10:58;26.30;99.90
19538;DHT22;9914;51.008;4.300;2022-09-13T10:13:25;26.30;99.90
19538;DHT22;9914;51.008;4.300;2022-09-13T10:15:59;26.20;99.90
19538;DHT22;9914;51.008;4.300;2022-09-13T10:18:35;26.30;99.90
19538;DHT22;9914;51.008;4.300;2022-09-13T10:23:46;26.70;99.90
19538;DHT22;9914;51.008;4.300;2022-09-13T10:26:24;26.70;99.90
19538;DHT22;9914;51.008;4.300;2022-09-13T10:29:13;26.50;99.90
19538;DHT22;9914;51.008;4.300;2022-09-13T10:31:41;26.70;99.90
19538;DHT22;9914;51.008;4.300;2022-09-13T10:34:16;27.00;99.90
19538;DHT22;9914;51.008;4.300;2022-09-13T10:37:03;27.40;99.90
19538;DHT22;9914;51.008;4.300;2022-09-13T10:39:33;27.80;99.90
19538;DHT22;9914;51.008;4.300;2022-09-13T10:42:00;27.60;99.90
19538;DHT22;9914;51.008;4.300;2022-09-13T10:44:38;27.70;99.90
19538;DHT22;9914;51.008;4.300;2022-09-13T10:50:26;28.00;99.90
19538;DHT22;9914;51.008;4.300;2022-09-13T10:52:56;28.50;99.90
19538;DHT22;9914;51.008;4.300;2022-09-13T10:55:27;28.90;99.90
19538;DHT22;9914;51.008;4.300;2022-09-13T10:57:54;29.00;99.90
19538;DHT22;9914;51.008;4.300;2022-09-13T11:00:51;28.90;99.90
19538;DHT22;9914;51.008;4.300;2022-09-13T11:30:37;29.10;99.90
19538;DHT22;9914;51.008;4.300;2022-09-13T11:41:38;29.10;99.90
19538;DHT22;9914;51.008;4.300;2022-09-13T11:44:29;29.20;99.90
19538;DHT22;9914;51.008;4.300;2022-09-13T11:47:19;29.30;99.90
19538;DHT22;9914;51.008;4.300;2022-09-13T11:50:08;29.70;99.90
19538;DHT22;9914;51.008;4.300;2022-09-13T11:57:52;29.60;99.90
19538;DHT22;9914;51.008;4.300;2022-09-13T12:00:23;29.40;99.90
19538;DHT22;9914;51.008;4.300;2022-09-13T12:05:34;29.20;99.90
19538;DHT22;9914;51.008;4.300;2022-09-13T12:10:44;29.60;99.90
19538;DHT22;9914;51.008;4.300;2022-09-13T12:13:21;29.90;99.90
19538;DHT22;9914;51.008;4.300;2022-09-13T12:15:51;29.90;99.90
19538;DHT22;9914;51.008;4.300;2022-09-13T12:18:24;29.60;99.90
19538;DHT22;9914;51.008;4.300;2022-09-13T12:21:41;29.30;99.90
19538;DHT22;9914;51.008;4.300;2022-09-13T12:24:07;29.40;99.90
19538;DHT22;9914;51.008;4.300;2022-09-13T12:29:32;29.20;99.90
19538;DHT22;9914;51.008;4.300;2022-09-13T12:32:03;29.40;99.90
19538;DHT22;9914;51.008;4.300;2022-09-13T12:40:47;29.40;99.90
19538;DHT22;9914;51.008;4.300;2022-09-13T12:43:22;29.20;99.90
19538;DHT22;9914;51.008;4.300;2022-09-13T12:51:34;28.70;99.90
19538;DHT22;9914;51.008;4.300;2022-09-13T12:57:40;28.80;99.90
19538;DHT22;9914;51.008;4.300;2022-09-13T13:00:23;28.70;99.90
19538;DHT22;9914;51.008;4.300;2022-09-13T13:02:58;28.40;99.90
19538;DHT22;9914;51.008;4.300;2022-09-13T13:05:32;28.30;99.90
19538;DHT22;9914;51.008;4.300;2022-09-13T13:08:45;28.10;99.90
19538;DHT22;9914;51.008;4.300;2022-09-13T13:11:05;28.30;99.90
19538;DHT22;9914;51.008;4.300;2022-09-13T13:13:42;28.00;99.90
19538;DHT22;9914;51.008;4.300;2022-09-13T13:16:36;27.60;99.90
19538;DHT22;9914;51.008;4.300;2022-09-13T13:19:24;27.70;99.90
19538;DHT22;9914;51.008;4.300;2022-09-13T13:21:49;27.70;99.90
19538;DHT22;9914;51.008;4.300;2022-09-13T13:26:52;27.30;99.90
19538;DHT22;9914;51.008;4.300;2022-09-13T13:29:22;27.00;99.90
19538;DHT22;9914;51.008;4.300;2022-09-13T13:39:45;26.70;99.90
19538;DHT22;9914;51.008;4.300;2022-09-13T13:42:40;26.70;99.90
19538;DHT22;9914;51.008;4.300;2022-09-13T13:45:26;26.20;99.90
19538;DHT22;9914;51.008;4.300;2022-09-13T13:48:07;26.20;99.90
19538;DHT22;9914;51.008;4.300;2022-09-13T13:50:34;26.30;99.90
19538;DHT22;9914;51.008;4.300;2022-09-13T13:53:19;26.10;99.90
19538;DHT22;9914;51.008;4.300;2022-09-13T13:55:47;25.70;99.90
19538;DHT22;9914;51.008;4.300;2022-09-13T13:58:30;25.60;99.90
19538;DHT22;9914;51.008;4.300;2022-09-13T14:00:59;25.70;99.90
19538;DHT22;9914;51.008;4.300;2022-09-13T14:03:37;25.90;99.90
19538;DHT22;9914;51.008;4.300;2022-09-13T14:06:15;25.90;99.90
19538;DHT22;9914;51.008;4.300;2022-09-13T14:11:47;26.20;99.90
19538;DHT22;9914;51.008;4.300;2022-09-13T14:19:45;26.60;99.90
19538;DHT22;9914;51.008;4.300;2022-09-13T14:24:52;26.70;99.90
19538;DHT22;9914;51.008;4.300;2022-09-13T14:27:27;26.60;99.90
19538;DHT22;9914;51.008;4.300;2022-09-13T14:30:02;26.60;99.90
19538;DHT22;9914;51.008;4.300;2022-09-13T14:32:44;26.50;99.90
19538;DHT22;9914;51.008;4.300;2022-09-13T14:37:52;26.30;99.90
19538;DHT22;9914;51.008;4.300;2022-09-13T14:40:26;26.20;99.90
19538;DHT22;9914;51.008;4.300;2022-09-13T14:42:53;26.20;99.90
19538;DHT22;9914;51.008;4.300;2022-09-13T14:45:23;26.20;99.90
19538;DHT22;9914;51.008;4.300;2022-09-13T14:47:57;26.20;99.90
19538;DHT22;9914;51.008;4.300;2022-09-13T14:50:32;26.10;99.90
19538;DHT22;9914;51.008;4.300;2022-09-13T14:53:04;25.80;99.90
19538;DHT22;9914;51.008;4.300;2022-09-13T14:55:35;25.20;99.90
19538;DHT22;9914;51.008;4.300;2022-09-13T14:58:05;25.00;99.90
19538;DHT22;9914;51.008;4.300;2022-09-13T15:00:34;25.20;99.90
19538;DHT22;9914;51.008;4.300;2022-09-13T15:03:03;24.90;99.90
19538;DHT22;9914;51.008;4.300;2022-09-13T15:05:35;24.60;99.90
19538;DHT22;9914;51.008;4.300;2022-09-13T15:08:41;24.60;99.90
19538;DHT22;9914;51.008;4.300;2022-09-13T15:11:25;24.40;99.90
19538;DHT22;9914;51.008;4.300;2022-09-13T15:14:00;24.60;99.90
19538;DHT22;9914;51.008;4.300;2022-09-13T15:16:30;24.70;99.90
19538;DHT22;9914;51.008;4.300;2022-09-13T15:19:38;24.80;99.90
19538;DHT22;9914;51.008;4.300;2022-09-13T15:24:45;24.50;99.90
19538;DHT22;9914;51.008;4.300;2022-09-13T15:30:23;24.50;99.90
19538;DHT22;9914;51.008;4.300;2022-09-13T15:32:49;24.90;99.90
19538;DHT22;9914;51.008;4.300;2022-09-13T15:35:30;25.10;99.90
19538;DHT22;9914;51.008;4.300;2022-09-13T15:38:00;25.40;99.90
19538;DHT22;9914;51.008;4.300;2022-09-13T15:40:28;25.40;99.90
19538;DHT22;9914;51.008;4.300;2022-09-13T15:42:54;25.50;99.90
19538;DHT22;9914;51.008;4.300;2022-09-13T15:45:21;25.60;99.90
19538;DHT22;9914;51.008;4.300;2022-09-13T15:47:48;25.70;99.90
19538;DHT22;9914;51.008;4.300;2022-09-13T15:50:29;25.50;99.90
19538;DHT22;9914;51.008;4.300;2022-09-13T15:53:01;25.40;99.90
19538;DHT22;9914;51.008;4.300;2022-09-13T15:55:27;25.30;99.90
19538;DHT22;9914;51.008;4.300;2022-09-13T15:57:55;25.00;99.90
19538;DHT22;9914;51.008;4.300;2022-09-13T16:00:25;25.10;99.90
19538;DHT22;9914;51.008;4.300;2022-09-13T16:02:52;25.10;99.90
19538;DHT22;9914;51.008;4.300;2022-09-13T16:05:18;24.80;99.90
19538;DHT22;9914;51.008;4.300;2022-09-13T16:07:44;24.90;99.90
19538;DHT22;9914;51.008;4.300;2022-09-13T16:10:16;25.00;99.90
19538;DHT22;9914;51.008;4.300;2022-09-13T16:12:42;24.80;99.90
19538;DHT22;9914;51.008;4.300;2022-09-13T16:15:08;24.80;99.90
19538;DHT22;9914;51.008;4.300;2022-09-13T16:17:34;24.80;99.90
19538;DHT22;9914;51.008;4.300;2022-09-13T16:20:00;24.90;99.90
19538;DHT22;9914;51.008;4.300;2022-09-13T16:22:26;24.60;99.90
19538;DHT22;9914;51.008;4.300;2022-09-13T16:24:51;24.60;99.90
19538;DHT22;9914;51.008;4.300;2022-09-13T16:27:18;24.90;99.90
19538;DHT22;9914;51.008;4.300;2022-09-13T16:29:45;25.00;99.90
19538;DHT22;9914;51.008;4.300;2022-09-13T16:32:10;24.60;99.90
19538;DHT22;9914;51.008;4.300;2022-09-13T16:34:36;24.10;99.90
19538;DHT22;9914;51.008;4.300;2022-09-13T16:37:02;23.90;99.90
19538;DHT22;9914;51.008;4.300;2022-09-13T16:39:28;23.60;99.90
19538;DHT22;9914;51.008;4.300;2022-09-13T16:41:53;23.50;99.90
19538;DHT22;9914;51.008;4.300;2022-09-13T16:44:19;23.30;99.90
19538;DHT22;9914;51.008;4.300;2022-09-13T16:46:45;23.60;99.90
19538;DHT22;9914;51.008;4.300;2022-09-13T16:49:11;23.90;99.90
19538;DHT22;9914;51.008;4.300;2022-09-13T16:51:37;24.10;99.90
19538;DHT22;9914;51.008;4.300;2022-09-13T16:54:03;24.30;99.90
19538;DHT22;9914;51.008;4.300;2022-09-13T16:56:29;24.40;99.90
19538;DHT22;9914;51.008;4.300;2022-09-13T16:58:54;24.30;99.90
19538;DHT22;9914;51.008;4.300;2022-09-13T17:01:23;23.90;99.90
19538;DHT22;9914;51.008;4.300;2022-09-13T17:03:49;23.80;99.90
19538;DHT22;9914;51.008;4.300;2022-09-13T17:06:16;23.90;99.90
19538;DHT22;9914;51.008;4.300;2022-09-13T17:08:47;24.00;99.90
19538;DHT22;9914;51.008;4.300;2022-09-13T17:11:15;24.00;99.90
19538;DHT22;9914;51.008;4.300;2022-09-13T17:13:41;23.80;99.90
19538;DHT22;9914;51.008;4.300;2022-09-13T17:16:25;23.70;99.90
19538;DHT22;9914;51.008;4.300;2022-09-13T17:18:51;23.70;99.90
19538;DHT22;9914;51.008;4.300;2022-09-13T17:21:18;23.90;99.90
19538;DHT22;9914;51.008;4.300;2022-09-13T17:23:43;24.00;99.90
19538;DHT22;9914;51.008;4.300;2022-09-13T17:26:09;24.00;99.90
19538;DHT22;9914;51.008;4.300;2022-09-13T17:28:35;23.90;99.90
19538;DHT22;9914;51.008;4.300;2022-09-13T17:31:01;24.10;99.90
19538;DHT22;9914;51.008;4.300;2022-09-13T17:33:27;24.10;99.90
19538;DHT22;9914;51.008;4.300;2022-09-13T17:36:04;24.20;99.90
19538;DHT22;9914;51.008;4.300;2022-09-13T17:38:29;24.00;99.90
19538;DHT22;9914;51.008;4.300;2022-09-13T17:41:06;23.90;99.90
19538;DHT22;9914;51.008;4.300;2022-09-13T17:43:33;23.80;99.90
19538;DHT22;9914;51.008;4.300;2022-09-13T17:46:10;23.90;99.90
19538;DHT22;9914;51.008;4.300;2022-09-13T17:48:36;23.90;99.90
19538;DHT22;9914;51.008;4.300;2022-09-13T17:51:04;23.70;99.90
19538;DHT22;9914;51.008;4.300;2022-09-13T17:53:30;23.60;99.90
19538;DHT22;9914;51.008;4.300;2022-09-13T17:55:56;23.10;99.90
19538;DHT22;9914;51.008;4.300;2022-09-13T17:58:25;23.00;99.90
19538;DHT22;9914;51.008;4.300;2022-09-13T18:01:05;22.80;99.90
19538;DHT22;9914;51.008;4.300;2022-09-13T18:03:31;22.60;99.90
19538;DHT22;9914;51.008;4.300;2022-09-13T18:05:59;22.50;99.90
19538;DHT22;9914;51.008;4.300;2022-09-13T18:08:26;22.50;99.90
19538;DHT22;9914;51.008;4.300;2022-09-13T18:10:52;22.40;99.90
19538;DHT22;9914;51.008;4.300;2022-09-13T18:13:18;22.40;99.90
19538;DHT22;9914;51.008;4.300;2022-09-13T18:15:44;22.30;99.90
19538;DHT22;9914;51.008;4.300;2022-09-13T18:18:11;22.40;99.90
19538;DHT22;9914;51.008;4.300;2022-09-13T18:20:37;22.60;99.90
19538;DHT22;9914;51.008;4.300;2022-09-13T18:23:03;22.50;99.90
19538;DHT22;9914;51.008;4.300;2022-09-13T18:25:28;22.60;99.90
19538;DHT22;9914;51.008;4.300;2022-09-13T18:27:54;22.30;99.90
19538;DHT22;9914;51.008;4.300;2022-09-13T18:30:19;22.20;99.90
19538;DHT22;9914;51.008;4.300;2022-09-13T18:32:45;22.00;99.90
19538;DHT22;9914;51.008;4.300;2022-09-13T18:35:11;21.90;99.90
19538;DHT22;9914;51.008;4.300;2022-09-13T18:37:36;21.70;99.90
19538;DHT22;9914;51.008;4.300;2022-09-13T18:40:02;21.70;99.90
19538;DHT22;9914;51.008;4.300;2022-09-13T18:42:28;21.70;99.90
19538;DHT22;9914;51.008;4.300;2022-09-13T18:44:54;21.70;99.90
19538;DHT22;9914;51.008;4.300;2022-09-13T18:47:19;21.80;99.90
19538;DHT22;9914;51.008;4.300;2022-09-13T18:49:45;21.90;99.90
19538;DHT22;9914;51.008;4.300;2022-09-13T18:52:10;21.90;99.90
19538;DHT22;9914;51.008;4.300;2022-09-13T18:54:36;22.10;99.90
19538;DHT22;9914;51.008;4.300;2022-09-13T18:57:02;22.20;99.90
19538;DHT22;9914;51.008;4.300;2022-09-13T18:59:28;22.10;99.90
19538;DHT22;9914;51.008;4.300;2022-09-13T19:01:56;22.10;99.90
19538;DHT22;9914;51.008;4.300;2022-09-13T19:04:22;22.10;99.90
19538;DHT22;9914;51.008;4.300;2022-09-13T19:06:52;21.80;99.90
19538;DHT22;9914;51.008;4.300;2022-09-13T19:09:20;21.50;99.90
19538;DHT22;9914;51.008;4.300;2022-09-13T19:11:48;21.60;99.90
19538;DHT22;9914;51.008;4.300;2022-09-13T19:14:19;21.60;99.90